Green Mountain, Iowa
Current Conditions -  °F | °C
As of 1:53 AM on Tuesday 27 Jan 2015 (Local Time) from KMIW Reporting Station
Clear Clear  
Wind Chill: 25°   Ceiling: Unl
Heat Index: 32°   Visibility: 10mi
Dew Point: 29°   Wind: 8mph
Humidity: 88%   Direction: 320°NW
Pressure: 30"   Gusts: NA
Location:  42.0801°N, 92.709°W
Report Text: KMIW 270753Z AUTO 32007KT 10SM CLR 00/M02 A3000 RMK AO2 SLP164 T00001017
Loading
Personal Weather Stations






























Interactive Weather Map New forecast layout! Learn more

10-Day Weather Forecast

Advertisements
Track Severe Weather on mobile